sensor_id;sensor_type;location;lat;lon;timestamp;pressure;altitude;pressure_sealevel;temperature;humidity
17054;BME280;8643;48.824;11.422;2023-05-07T00:01:48;96904.00;;;10.39;100.00
17054;BME280;8643;48.824;11.422;2023-05-07T00:04:17;96902.56;;;10.42;100.00
17054;BME280;8643;48.824;11.422;2023-05-07T00:06:46;96896.63;;;10.40;100.00
17054;BME280;8643;48.824;11.422;2023-05-07T00:09:16;96902.91;;;10.61;100.00
17054;BME280;8643;48.824;11.422;2023-05-07T00:11:45;96890.75;;;10.50;100.00
17054;BME280;8643;48.824;11.422;2023-05-07T00:14:13;96889.47;;;10.48;100.00
17054;BME280;8643;48.824;11.422;2023-05-07T00:16:42;96896.75;;;10.43;100.00
17054;BME280;8643;48.824;11.422;2023-05-07T00:19:11;96895.97;;;10.43;100.00
17054;BME280;8643;48.824;11.422;2023-05-07T00:21:39;96902.88;;;10.40;100.00
17054;BME280;8643;48.824;11.422;2023-05-07T00:24:08;96902.75;;;10.37;100.00
17054;BME280;8643;48.824;11.422;2023-05-07T00:26:38;96898.06;;;10.37;100.00
17054;BME280;8643;48.824;11.422;2023-05-07T00:29:07;96894.28;;;10.21;100.00
17054;BME280;8643;48.824;11.422;2023-05-07T00:31:36;96905.44;;;10.07;100.00
17054;BME280;8643;48.824;11.422;2023-05-07T00:34:05;96895.66;;;10.06;100.00
17054;BME280;8643;48.824;11.422;2023-05-07T00:36:34;96908.69;;;10.00;100.00
17054;BME280;8643;48.824;11.422;2023-05-07T00:39:03;96904.69;;;9.98;100.00
17054;BME280;8643;48.824;11.422;2023-05-07T00:41:32;96906.13;;;10.04;100.00
17054;BME280;8643;48.824;11.422;2023-05-07T00:44:02;96911.59;;;10.04;100.00
17054;BME280;8643;48.824;11.422;2023-05-07T00:46:31;96913.66;;;10.07;100.00
17054;BME280;8643;48.824;11.422;2023-05-07T00:49:01;96914.75;;;10.15;100.00
17054;BME280;8643;48.824;11.422;2023-05-07T00:51:30;96911.22;;;10.14;100.00
17054;BME280;8643;48.824;11.422;2023-05-07T00:54:01;96911.41;;;10.09;100.00
17054;BME280;8643;48.824;11.422;2023-05-07T00:56:30;96902.88;;;10.02;100.00
17054;BME280;8643;48.824;11.422;2023-05-07T00:59:01;96903.88;;;9.97;100.00
17054;BME280;8643;48.824;11.422;2023-05-07T01:01:30;96915.50;;;9.94;100.00
17054;BME280;8643;48.824;11.422;2023-05-07T01:03:59;96903.59;;;9.90;100.00
17054;BME280;8643;48.824;11.422;2023-05-07T01:06:30;96907.78;;;9.87;100.00
17054;BME280;8643;48.824;11.422;2023-05-07T01:09:01;96908.91;;;9.86;100.00
17054;BME280;8643;48.824;11.422;2023-05-07T01:11:32;96899.75;;;9.82;100.00
17054;BME280;8643;48.824;11.422;2023-05-07T01:14:02;96896.56;;;9.80;100.00
17054;BME280;8643;48.824;11.422;2023-05-07T01:16:31;96892.19;;;9.79;100.00
17054;BME280;8643;48.824;11.422;2023-05-07T01:19:01;96883.47;;;9.86;100.00
17054;BME280;8643;48.824;11.422;2023-05-07T01:21:33;96884.13;;;9.91;100.00
17054;BME280;8643;48.824;11.422;2023-05-07T01:24:06;96890.53;;;9.96;100.00
17054;BME280;8643;48.824;11.422;2023-05-07T01:26:35;96877.41;;;10.10;100.00
17054;BME280;8643;48.824;11.422;2023-05-07T01:29:04;96880.03;;;10.06;100.00
17054;BME280;8643;48.824;11.422;2023-05-07T01:31:35;96875.88;;;10.00;100.00
17054;BME280;8643;48.824;11.422;2023-05-07T01:34:07;96873.50;;;9.90;100.00
17054;BME280;8643;48.824;11.422;2023-05-07T01:36:38;96879.75;;;9.99;100.00
17054;BME280;8643;48.824;11.422;2023-05-07T01:39:09;96886.47;;;10.02;100.00
17054;BME280;8643;48.824;11.422;2023-05-07T01:41:38;96871.63;;;10.12;100.00
17054;BME280;8643;48.824;11.422;2023-05-07T01:44:08;96881.78;;;10.11;100.00
17054;BME280;8643;48.824;11.422;2023-05-07T01:46:38;96872.94;;;10.05;100.00
17054;BME280;8643;48.824;11.422;2023-05-07T01:49:07;96874.75;;;10.01;100.00
17054;BME280;8643;48.824;11.422;2023-05-07T01:51:36;96879.59;;;9.96;100.00
17054;BME280;8643;48.824;11.422;2023-05-07T01:54:05;96884.91;;;9.92;100.00
17054;BME280;8643;48.824;11.422;2023-05-07T01:56:37;96876.91;;;9.87;100.00
17054;BME280;8643;48.824;11.422;2023-05-07T01:59:05;96883.97;;;9.88;100.00
17054;BME280;8643;48.824;11.422;2023-05-07T02:01:34;96881.44;;;9.83;100.00
17054;BME280;8643;48.824;11.422;2023-05-07T02:04:03;96876.63;;;9.80;100.00
17054;BME280;8643;48.824;11.422;2023-05-07T02:06:32;96883.72;;;9.72;100.00
17054;BME280;8643;48.824;11.422;2023-05-07T02:09:04;96882.28;;;9.75;100.00
17054;BME280;8643;48.824;11.422;2023-05-07T02:11:33;96881.44;;;9.83;100.00
17054;BME280;8643;48.824;11.422;2023-05-07T02:14:03;96881.25;;;9.88;100.00
17054;BME280;8643;48.824;11.422;2023-05-07T02:16:32;96889.88;;;9.99;100.00
17054;BME280;8643;48.824;11.422;2023-05-07T02:19:01;96876.69;;;10.01;100.00
17054;BME280;8643;48.824;11.422;2023-05-07T02:21:30;96879.25;;;9.97;100.00
17054;BME280;8643;48.824;11.422;2023-05-07T02:23:58;96882.00;;;9.97;100.00
17054;BME280;8643;48.824;11.422;2023-05-07T02:26:27;96876.81;;;10.04;100.00
17054;BME280;8643;48.824;11.422;2023-05-07T02:28:56;96876.03;;;10.04;100.00
17054;BME280;8643;48.824;11.422;2023-05-07T02:31:26;96885.03;;;10.04;100.00
17054;BME280;8643;48.824;11.422;2023-05-07T02:33:55;96883.88;;;10.05;100.00
17054;BME280;8643;48.824;11.422;2023-05-07T02:36:24;96880.97;;;10.11;100.00
17054;BME280;8643;48.824;11.422;2023-05-07T02:39:08;96881.66;;;9.99;100.00
17054;BME280;8643;48.824;11.422;2023-05-07T02:41:37;96884.44;;;9.90;100.00
17054;BME280;8643;48.824;11.422;2023-05-07T02:44:05;96884.25;;;9.95;100.00
17054;BME280;8643;48.824;11.422;2023-05-07T02:46:36;96880.22;;;10.01;100.00
17054;BME280;8643;48.824;11.422;2023-05-07T02:49:09;96876.16;;;10.07;100.00
17054;BME280;8643;48.824;11.422;2023-05-07T02:51:38;96881.44;;;10.13;100.00
17054;BME280;8643;48.824;11.422;2023-05-07T02:54:11;96870.19;;;10.05;100.00
17054;BME280;8643;48.824;11.422;2023-05-07T02:56:40;96879.81;;;10.12;100.00
17054;BME280;8643;48.824;11.422;2023-05-07T02:59:09;96879.88;;;10.03;100.00
17054;BME280;8643;48.824;11.422;2023-05-07T03:01:42;96867.97;;;9.99;100.00
17054;BME280;8643;48.824;11.422;2023-05-07T03:04:12;96877.69;;;9.87;100.00
17054;BME280;8643;48.824;11.422;2023-05-07T03:06:41;96874.81;;;9.84;100.00
17054;BME280;8643;48.824;11.422;2023-05-07T03:09:10;96880.59;;;9.82;100.00
17054;BME280;8643;48.824;11.422;2023-05-07T03:11:39;96871.94;;;9.80;100.00
17054;BME280;8643;48.824;11.422;2023-05-07T03:14:08;96874.22;;;9.69;100.00
17054;BME280;8643;48.824;11.422;2023-05-07T03:16:37;96871.84;;;9.59;100.00
17054;BME280;8643;48.824;11.422;2023-05-07T03:19:07;96875.41;;;9.51;100.00
17054;BME280;8643;48.824;11.422;2023-05-07T03:21:35;96863.38;;;9.52;100.00
17054;BME280;8643;48.824;11.422;2023-05-07T03:24:05;96869.50;;;9.49;100.00
17054;BME280;8643;48.824;11.422;2023-05-07T03:26:33;96874.94;;;9.49;100.00
17054;BME280;8643;48.824;11.422;2023-05-07T03:29:02;96880.41;;;9.49;100.00
17054;BME280;8643;48.824;11.422;2023-05-07T03:31:31;96875.59;;;9.46;100.00
17054;BME280;8643;48.824;11.422;2023-05-07T03:34:01;96881.06;;;9.46;100.00
17054;BME280;8643;48.824;11.422;2023-05-07T03:36:32;96884.75;;;9.50;100.00
17054;BME280;8643;48.824;11.422;2023-05-07T03:39:00;96888.31;;;9.42;100.00
17054;BME280;8643;48.824;11.422;2023-05-07T03:41:36;96884.16;;;9.35;100.00
17054;BME280;8643;48.824;11.422;2023-05-07T03:44:05;96896.38;;;9.29;100.00
17054;BME280;8643;48.824;11.422;2023-05-07T03:46:34;96895.41;;;9.25;100.00
17054;BME280;8643;48.824;11.422;2023-05-07T03:49:03;96900.25;;;9.20;100.00
17054;BME280;8643;48.824;11.422;2023-05-07T03:51:34;96900.56;;;9.18;100.00
17054;BME280;8643;48.824;11.422;2023-05-07T03:54:05;96905.41;;;9.21;100.00
17054;BME280;8643;48.824;11.422;2023-05-07T03:56:34;96906.66;;;9.24;100.00
17054;BME280;8643;48.824;11.422;2023-05-07T03:59:03;96903.75;;;9.29;100.00
17054;BME280;8643;48.824;11.422;2023-05-07T04:01:31;96909.56;;;9.27;100.00
17054;BME280;8643;48.824;11.422;2023-05-07T04:04:00;96902.03;;;9.24;100.00
17054;BME280;8643;48.824;11.422;2023-05-07T04:06:30;96898.78;;;9.22;100.00
17054;BME280;8643;48.824;11.422;2023-05-07T04:09:00;96909.72;;;9.31;100.00
17054;BME280;8643;48.824;11.422;2023-05-07T04:11:30;96910.47;;;9.49;100.00
17054;BME280;8643;48.824;11.422;2023-05-07T04:13:59;96909.50;;;9.53;100.00
17054;BME280;8643;48.824;11.422;2023-05-07T04:16:28;96912.41;;;9.48;100.00
17054;BME280;8643;48.824;11.422;2023-05-07T04:18:56;96917.25;;;9.43;100.00
17054;BME280;8643;48.824;11.422;2023-05-07T04:21:25;96921.28;;;9.45;100.00
17054;BME280;8643;48.824;11.422;2023-05-07T04:23:56;96919.47;;;9.49;100.00
17054;BME280;8643;48.824;11.422;2023-05-07T04:26:26;96926.56;;;9.50;100.00
17054;BME280;8643;48.824;11.422;2023-05-07T04:28:56;96925.59;;;9.46;100.00
17054;BME280;8643;48.824;11.422;2023-05-07T04:31:26;96924.00;;;9.45;100.00
17054;BME280;8643;48.824;11.422;2023-05-07T04:33:55;96929.16;;;9.47;100.00
17054;BME280;8643;48.824;11.422;2023-05-07T04:36:24;96916.91;;;9.44;100.00
17054;BME280;8643;48.824;11.422;2023-05-07T04:39:00;96928.31;;;9.46;100.00
17054;BME280;8643;48.824;11.422;2023-05-07T04:41:30;96922.69;;;9.51;100.00
17054;BME280;8643;48.824;11.422;2023-05-07T04:44:00;96920.88;;;9.64;100.00
17054;BME280;8643;48.824;11.422;2023-05-07T04:46:30;96919.25;;;9.72;100.00
17054;BME280;8643;48.824;11.422;2023-05-07T04:48:59;96918.56;;;9.84;100.00
17054;BME280;8643;48.824;11.422;2023-05-07T04:51:28;96913.69;;;9.98;100.00
17054;BME280;8643;48.824;11.422;2023-05-07T04:53:56;96915.91;;;10.14;100.00
17054;BME280;8643;48.824;11.422;2023-05-07T04:56:29;96908.69;;;10.39;100.00
17054;BME280;8643;48.824;11.422;2023-05-07T04:59:00;96905.00;;;10.64;100.00
17054;BME280;8643;48.824;11.422;2023-05-07T05:01:30;96912.22;;;10.90;100.00
17054;BME280;8643;48.824;11.422;2023-05-07T05:03:59;96912.19;;;11.11;100.00
17054;BME280;8643;48.824;11.422;2023-05-07T05:06:29;96928.47;;;11.29;100.00
17054;BME280;8643;48.824;11.422;2023-05-07T05:09:02;96931.41;;;11.45;100.00
17054;BME280;8643;48.824;11.422;2023-05-07T05:11:35;96931.47;;;11.69;100.00
17054;BME280;8643;48.824;11.422;2023-05-07T05:14:04;96926.88;;;11.95;100.00
17054;BME280;8643;48.824;11.422;2023-05-07T05:16:33;96933.75;;;12.13;100.00
17054;BME280;8643;48.824;11.422;2023-05-07T05:19:02;96932.84;;;12.21;100.00
17054;BME280;8643;48.824;11.422;2023-05-07T05:21:34;96934.44;;;12.22;100.00
17054;BME280;8643;48.824;11.422;2023-05-07T05:24:07;96931.44;;;12.15;100.00
17054;BME280;8643;48.824;11.422;2023-05-07T05:26:37;96932.69;;;12.05;100.00
17054;BME280;8643;48.824;11.422;2023-05-07T05:29:07;96942.88;;;12.17;100.00
17054;BME280;8643;48.824;11.422;2023-05-07T05:31:39;96934.66;;;12.17;100.00
17054;BME280;8643;48.824;11.422;2023-05-07T05:34:09;96932.38;;;12.19;100.00
17054;BME280;8643;48.824;11.422;2023-05-07T05:36:38;96935.13;;;12.19;100.00
17054;BME280;8643;48.824;11.422;2023-05-07T05:39:07;96926.44;;;12.29;100.00
17054;BME280;8643;48.824;11.422;2023-05-07T05:41:38;96934.22;;;12.52;100.00
17054;BME280;8643;48.824;11.422;2023-05-07T05:44:08;96932.34;;;12.81;100.00
17054;BME280;8643;48.824;11.422;2023-05-07T05:46:36;96939.28;;;13.03;100.00
17054;BME280;8643;48.824;11.422;2023-05-07T05:49:06;96933.34;;;13.29;100.00
17054;BME280;8643;48.824;11.422;2023-05-07T05:51:35;96926.78;;;13.62;100.00
17054;BME280;8643;48.824;11.422;2023-05-07T05:54:04;96925.44;;;14.00;100.00
17054;BME280;8643;48.824;11.422;2023-05-07T05:56:33;96927.38;;;14.16;100.00
17054;BME280;8643;48.824;11.422;2023-05-07T05:59:04;96930.66;;;14.69;100.00
17054;BME280;8643;48.824;11.422;2023-05-07T06:01:33;96934.34;;;15.12;100.00
17054;BME280;8643;48.824;11.422;2023-05-07T06:04:04;96937.84;;;15.68;100.00
17054;BME280;8643;48.824;11.422;2023-05-07T06:06:34;96936.53;;;15.42;100.00
17054;BME280;8643;48.824;11.422;2023-05-07T06:09:03;96934.31;;;15.71;100.00
17054;BME280;8643;48.824;11.422;2023-05-07T06:11:38;96942.00;;;16.01;100.00
17054;BME280;8643;48.824;11.422;2023-05-07T06:14:10;96946.50;;;16.32;100.00
17054;BME280;8643;48.824;11.422;2023-05-07T06:16:39;96941.16;;;16.43;100.00
17054;BME280;8643;48.824;11.422;2023-05-07T06:19:08;96938.72;;;17.18;100.00
17054;BME280;8643;48.824;11.422;2023-05-07T06:21:39;96945.69;;;17.72;100.00
17054;BME280;8643;48.824;11.422;2023-05-07T06:24:09;96946.72;;;17.57;97.34
17054;BME280;8643;48.824;11.422;2023-05-07T06:26:38;96946.94;;;17.78;95.59
17054;BME280;8643;48.824;11.422;2023-05-07T06:29:09;96945.78;;;17.80;96.71
17054;BME280;8643;48.824;11.422;2023-05-07T06:31:40;96957.25;;;18.16;96.01
17054;BME280;8643;48.824;11.422;2023-05-07T06:34:11;96960.50;;;18.28;93.35
17054;BME280;8643;48.824;11.422;2023-05-07T06:36:42;96964.06;;;18.74;97.49
17054;BME280;8643;48.824;11.422;2023-05-07T06:39:23;96964.03;;;18.70;95.00
17054;BME280;8643;48.824;11.422;2023-05-07T06:41:52;96967.41;;;18.94;97.24
17054;BME280;8643;48.824;11.422;2023-05-07T06:44:32;96973.00;;;18.53;88.44
17054;BME280;8643;48.824;11.422;2023-05-07T06:47:07;96965.03;;;18.47;91.22
17054;BME280;8643;48.824;11.422;2023-05-07T06:49:38;96964.44;;;18.72;90.04
17054;BME280;8643;48.824;11.422;2023-05-07T06:52:07;96975.31;;;18.43;93.72
17054;BME280;8643;48.824;11.422;2023-05-07T06:54:36;96979.00;;;17.46;95.82
17054;BME280;8643;48.824;11.422;2023-05-07T06:57:06;96983.16;;;17.97;95.95
17054;BME280;8643;48.824;11.422;2023-05-07T06:59:36;96979.69;;;18.07;98.34
17054;BME280;8643;48.824;11.422;2023-05-07T07:02:05;96973.72;;;18.46;98.32
17054;BME280;8643;48.824;11.422;2023-05-07T07:04:34;96978.84;;;18.89;94.83
17054;BME280;8643;48.824;11.422;2023-05-07T07:07:07;96987.28;;;19.03;94.91
17054;BME280;8643;48.824;11.422;2023-05-07T07:09:36;96988.47;;;19.02;95.28
17054;BME280;8643;48.824;11.422;2023-05-07T07:12:07;96977.50;;;19.23;97.55
17054;BME280;8643;48.824;11.422;2023-05-07T07:14:39;96982.16;;;19.82;94.03
17054;BME280;8643;48.824;11.422;2023-05-07T07:17:08;96974.72;;;20.37;88.14
17054;BME280;8643;48.824;11.422;2023-05-07T07:19:37;96976.72;;;20.54;88.77
17054;BME280;8643;48.824;11.422;2023-05-07T07:22:07;96973.13;;;20.50;87.63
17054;BME280;8643;48.824;11.422;2023-05-07T07:24:37;96966.00;;;20.45;81.69
17054;BME280;8643;48.824;11.422;2023-05-07T07:27:09;96968.34;;;20.61;89.10
17054;BME280;8643;48.824;11.422;2023-05-07T07:29:40;96974.72;;;21.05;83.39
17054;BME280;8643;48.824;11.422;2023-05-07T07:32:09;96972.28;;;21.32;81.15
17054;BME280;8643;48.824;11.422;2023-05-07T07:34:38;96977.91;;;20.60;83.21
17054;BME280;8643;48.824;11.422;2023-05-07T07:37:07;96974.28;;;20.09;82.54
17054;BME280;8643;48.824;11.422;2023-05-07T07:39:37;96979.75;;;19.77;88.04
17054;BME280;8643;48.824;11.422;2023-05-07T07:42:08;96985.06;;;20.50;91.84
17054;BME280;8643;48.824;11.422;2023-05-07T07:44:39;96990.66;;;20.83;80.18
17054;BME280;8643;48.824;11.422;2023-05-07T07:47:10;96999.25;;;21.60;77.81
17054;BME280;8643;48.824;11.422;2023-05-07T07:49:40;97001.63;;;21.66;81.67
17054;BME280;8643;48.824;11.422;2023-05-07T07:52:10;96996.47;;;21.68;83.44
17054;BME280;8643;48.824;11.422;2023-05-07T07:54:42;97000.50;;;21.41;78.33
17054;BME280;8643;48.824;11.422;2023-05-07T07:57:11;96994.84;;;21.70;74.77
17054;BME280;8643;48.824;11.422;2023-05-07T07:59:41;96995.72;;;21.42;78.79
17054;BME280;8643;48.824;11.422;2023-05-07T08:02:13;96996.91;;;21.55;78.13
17054;BME280;8643;48.824;11.422;2023-05-07T08:04:42;96994.41;;;21.83;79.44
17054;BME280;8643;48.824;11.422;2023-05-07T08:07:12;97001.53;;;21.91;75.64
17054;BME280;8643;48.824;11.422;2023-05-07T08:09:44;96996.66;;;22.09;77.46
17054;BME280;8643;48.824;11.422;2023-05-07T08:12:14;97001.25;;;22.45;73.78
17054;BME280;8643;48.824;11.422;2023-05-07T08:14:44;97005.63;;;22.98;72.47
17054;BME280;8643;48.824;11.422;2023-05-07T08:17:12;97009.34;;;23.30;70.92
17054;BME280;8643;48.824;11.422;2023-05-07T08:19:44;96996.63;;;23.59;68.37
17054;BME280;8643;48.824;11.422;2023-05-07T08:22:14;96993.78;;;23.29;68.95
17054;BME280;8643;48.824;11.422;2023-05-07T08:24:45;96991.25;;;23.41;69.39
17054;BME280;8643;48.824;11.422;2023-05-07T08:27:14;96986.53;;;23.35;65.23
17054;BME280;8643;48.824;11.422;2023-05-07T08:29:44;96998.75;;;23.48;66.78
17054;BME280;8643;48.824;11.422;2023-05-07T08:32:16;97001.28;;;23.39;65.26
17054;BME280;8643;48.824;11.422;2023-05-07T08:34:45;96998.50;;;23.35;70.62
17054;BME280;8643;48.824;11.422;2023-05-07T08:37:14;96998.13;;;23.33;66.75
17054;BME280;8643;48.824;11.422;2023-05-07T08:39:43;96998.53;;;23.70;72.63
17054;BME280;8643;48.824;11.422;2023-05-07T08:42:18;96987.84;;;23.95;73.65
17054;BME280;8643;48.824;11.422;2023-05-07T08:44:51;96996.06;;;24.37;66.07
17054;BME280;8643;48.824;11.422;2023-05-07T08:47:28;96990.00;;;24.69;63.71
17054;BME280;8643;48.824;11.422;2023-05-07T08:50:01;96990.25;;;24.51;64.39
17054;BME280;8643;48.824;11.422;2023-05-07T08:52:30;96983.56;;;24.73;64.47
17054;BME280;8643;48.824;11.422;2023-05-07T08:55:00;96990.34;;;24.72;66.59
17054;BME280;8643;48.824;11.422;2023-05-07T08:57:28;97000.41;;;24.93;66.29
17054;BME280;8643;48.824;11.422;2023-05-07T09:00:00;96995.44;;;24.53;61.72
17054;BME280;8643;48.824;11.422;2023-05-07T09:02:29;96997.16;;;24.16;62.53
17054;BME280;8643;48.824;11.422;2023-05-07T09:04:57;97004.47;;;24.06;61.91
17054;BME280;8643;48.824;11.422;2023-05-07T09:07:26;96996.84;;;24.38;63.64
17054;BME280;8643;48.824;11.422;2023-05-07T09:09:56;97004.13;;;24.86;67.81
17054;BME280;8643;48.824;11.422;2023-05-07T09:12:25;97006.41;;;25.62;62.29
17054;BME280;8643;48.824;11.422;2023-05-07T09:14:55;97007.19;;;25.83;63.17
17054;BME280;8643;48.824;11.422;2023-05-07T09:17:26;97014.75;;;26.06;58.51
17054;BME280;8643;48.824;11.422;2023-05-07T09:19:54;97006.09;;;25.36;59.72
17054;BME280;8643;48.824;11.422;2023-05-07T09:22:23;97003.53;;;25.66;60.95
17054;BME280;8643;48.824;11.422;2023-05-07T09:25:00;96997.28;;;25.98;58.00
17054;BME280;8643;48.824;11.422;2023-05-07T09:27:31;97004.91;;;25.34;58.47
17054;BME280;8643;48.824;11.422;2023-05-07T09:30:02;97000.78;;;24.95;56.96
17054;BME280;8643;48.824;11.422;2023-05-07T09:32:35;96998.19;;;25.31;63.19
17054;BME280;8643;48.824;11.422;2023-05-07T09:35:15;96992.81;;;25.80;63.48
17054;BME280;8643;48.824;11.422;2023-05-07T09:37:48;96995.69;;;26.33;60.93
17054;BME280;8643;48.824;11.422;2023-05-07T09:40:21;97000.41;;;26.57;56.85
17054;BME280;8643;48.824;11.422;2023-05-07T09:42:51;96997.34;;;27.33;51.70
17054;BME280;8643;48.824;11.422;2023-05-07T09:45:26;96995.03;;;26.62;55.35
17054;BME280;8643;48.824;11.422;2023-05-07T09:47:59;96996.25;;;26.61;55.69
17054;BME280;8643;48.824;11.422;2023-05-07T09:50:32;97000.38;;;26.04;54.56
17054;BME280;8643;48.824;11.422;2023-05-07T09:53:04;97005.28;;;26.52;61.10
17054;BME280;8643;48.824;11.422;2023-05-07T09:55:33;97004.81;;;26.74;59.42
17054;BME280;8643;48.824;11.422;2023-05-07T09:58:04;96996.81;;;25.79;57.22
17054;BME280;8643;48.824;11.422;2023-05-07T10:00:33;96996.53;;;27.33;61.88
17054;BME280;8643;48.824;11.422;2023-05-07T10:03:11;96999.06;;;27.27;53.96
17054;BME280;8643;48.824;11.422;2023-05-07T10:05:53;97003.81;;;27.47;54.48
17054;BME280;8643;48.824;11.422;2023-05-07T10:08:22;97004.00;;;27.23;57.11
17054;BME280;8643;48.824;11.422;2023-05-07T10:10:55;97002.97;;;26.67;50.31
17054;BME280;8643;48.824;11.422;2023-05-07T10:13:26;97001.47;;;27.12;53.15
17054;BME280;8643;48.824;11.422;2023-05-07T10:15:58;97008.56;;;27.50;52.46
17054;BME280;8643;48.824;11.422;2023-05-07T10:18:34;96992.88;;;27.78;52.24
17054;BME280;8643;48.824;11.422;2023-05-07T10:21:17;96985.34;;;27.75;50.91
17054;BME280;8643;48.824;11.422;2023-05-07T10:23:53;96981.19;;;28.34;48.61
17054;BME280;8643;48.824;11.422;2023-05-07T10:26:27;96994.53;;;26.14;50.99
17054;BME280;8643;48.824;11.422;2023-05-07T10:29:01;96984.25;;;27.10;52.69
17054;BME280;8643;48.824;11.422;2023-05-07T10:31:53;96984.28;;;27.56;55.23
17054;BME280;8643;48.824;11.422;2023-05-07T10:34:34;96978.03;;;28.20;48.65
17054;BME280;8643;48.824;11.422;2023-05-07T10:37:04;96981.25;;;27.17;46.40
17054;BME280;8643;48.824;11.422;2023-05-07T10:39:36;96970.06;;;25.75;48.17
17054;BME280;8643;48.824;11.422;2023-05-07T10:42:09;96976.28;;;25.46;54.11
17054;BME280;8643;48.824;11.422;2023-05-07T10:44:43;96981.81;;;26.10;51.55
17054;BME280;8643;48.824;11.422;2023-05-07T10:47:18;96973.69;;;25.75;55.55
17054;BME280;8643;48.824;11.422;2023-05-07T10:50:23;96980.22;;;26.45;51.69
17054;BME280;8643;48.824;11.422;2023-05-07T10:53:20;96976.00;;;26.53;53.74
17054;BME280;8643;48.824;11.422;2023-05-07T10:56:28;96985.19;;;27.20;51.47
17054;BME280;8643;48.824;11.422;2023-05-07T10:59:34;96980.88;;;28.32;48.24
17054;BME280;8643;48.824;11.422;2023-05-07T11:03:04;96981.53;;;28.37;46.04
17054;BME280;8643;48.824;11.422;2023-05-07T11:06:10;96980.63;;;28.52;48.50
17054;BME280;8643;48.824;11.422;2023-05-07T11:08:54;96976.00;;;27.78;46.37
17054;BME280;8643;48.824;11.422;2023-05-07T11:11:44;96973.38;;;27.12;46.86
17054;BME280;8643;48.824;11.422;2023-05-07T11:14:48;96979.66;;;27.62;44.54
17054;BME280;8643;48.824;11.422;2023-05-07T11:17:24;96971.84;;;27.24;44.69
17054;BME280;8643;48.824;11.422;2023-05-07T11:20:03;96968.16;;;27.86;47.34
17054;BME280;8643;48.824;11.422;2023-05-07T11:22:48;96971.94;;;27.95;46.40
17054;BME280;8643;48.824;11.422;2023-05-07T11:25:25;96971.94;;;28.08;40.18
17054;BME280;8643;48.824;11.422;2023-05-07T11:28:14;96959.91;;;28.33;39.32
17054;BME280;8643;48.824;11.422;2023-05-07T11:30:49;96967.66;;;28.04;46.29
17054;BME280;8643;48.824;11.422;2023-05-07T11:33:21;96972.16;;;28.14;50.38
17054;BME280;8643;48.824;11.422;2023-05-07T11:35:54;96975.56;;;28.73;40.52
17054;BME280;8643;48.824;11.422;2023-05-07T11:38:30;96967.41;;;27.98;39.61
17054;BME280;8643;48.824;11.422;2023-05-07T11:41:01;96973.78;;;28.41;43.60
17054;BME280;8643;48.824;11.422;2023-05-07T11:43:31;96970.03;;;28.82;44.28
17054;BME280;8643;48.824;11.422;2023-05-07T11:46:08;96959.97;;;28.94;41.04
17054;BME280;8643;48.824;11.422;2023-05-07T11:48:38;96960.69;;;28.34;42.33
17054;BME280;8643;48.824;11.422;2023-05-07T11:51:09;96964.19;;;28.77;42.77
17054;BME280;8643;48.824;11.422;2023-05-07T11:53:42;96963.97;;;28.58;48.93
17054;BME280;8643;48.824;11.422;2023-05-07T11:56:13;96967.78;;;28.90;44.56
17054;BME280;8643;48.824;11.422;2023-05-07T11:58:43;96959.81;;;28.63;44.13
17054;BME280;8643;48.824;11.422;2023-05-07T12:01:13;96958.31;;;28.45;40.80
17054;BME280;8643;48.824;11.422;2023-05-07T12:03:45;96955.00;;;27.83;43.16
17054;BME280;8643;48.824;11.422;2023-05-07T12:06:16;96959.09;;;28.84;50.13
17054;BME280;8643;48.824;11.422;2023-05-07T12:08:47;96952.56;;;28.87;40.77
17054;BME280;8643;48.824;11.422;2023-05-07T12:11:22;96947.84;;;29.54;43.42
17054;BME280;8643;48.824;11.422;2023-05-07T12:13:54;96950.13;;;29.69;41.90
17054;BME280;8643;48.824;11.422;2023-05-07T12:16:25;96942.72;;;29.40;43.07
17054;BME280;8643;48.824;11.422;2023-05-07T12:18:55;96946.63;;;29.20;40.00
17054;BME280;8643;48.824;11.422;2023-05-07T12:21:26;96947.53;;;29.74;40.59
17054;BME280;8643;48.824;11.422;2023-05-07T12:23:56;96943.19;;;28.91;45.13
17054;BME280;8643;48.824;11.422;2023-05-07T12:26:25;96946.50;;;28.63;45.68
17054;BME280;8643;48.824;11.422;2023-05-07T12:28:54;96942.19;;;28.84;42.20
17054;BME280;8643;48.824;11.422;2023-05-07T12:31:22;96941.41;;;28.84;43.06
17054;BME280;8643;48.824;11.422;2023-05-07T12:33:53;96934.13;;;28.74;46.73
17054;BME280;8643;48.824;11.422;2023-05-07T12:36:22;96932.41;;;28.76;42.60
17054;BME280;8643;48.824;11.422;2023-05-07T12:38:52;96928.81;;;29.11;43.30
17054;BME280;8643;48.824;11.422;2023-05-07T12:41:24;96931.06;;;29.16;41.82
17054;BME280;8643;48.824;11.422;2023-05-07T12:43:56;96925.66;;;28.35;39.14
17054;BME280;8643;48.824;11.422;2023-05-07T12:46:25;96917.78;;;28.04;41.40
17054;BME280;8643;48.824;11.422;2023-05-07T12:48:54;96925.00;;;28.18;43.28
17054;BME280;8643;48.824;11.422;2023-05-07T12:51:23;96923.91;;;28.89;45.13
17054;BME280;8643;48.824;11.422;2023-05-07T12:53:56;96921.28;;;29.07;42.22
17054;BME280;8643;48.824;11.422;2023-05-07T12:56:26;96919.00;;;28.55;40.69
17054;BME280;8643;48.824;11.422;2023-05-07T12:58:57;96913.06;;;28.40;39.84
17054;BME280;8643;48.824;11.422;2023-05-07T13:01:29;96917.34;;;28.44;39.72
17054;BME280;8643;48.824;11.422;2023-05-07T13:04:02;96911.50;;;29.34;41.10
17054;BME280;8643;48.824;11.422;2023-05-07T13:06:33;96912.50;;;29.40;39.82
17054;BME280;8643;48.824;11.422;2023-05-07T13:09:02;96911.34;;;30.04;41.21
17054;BME280;8643;48.824;11.422;2023-05-07T13:11:31;96907.19;;;30.27;39.03
17054;BME280;8643;48.824;11.422;2023-05-07T13:14:00;96913.22;;;30.98;35.38
17054;BME280;8643;48.824;11.422;2023-05-07T13:16:29;96908.44;;;30.58;35.76
17054;BME280;8643;48.824;11.422;2023-05-07T13:18:57;96914.66;;;30.43;38.00
17054;BME280;8643;48.824;11.422;2023-05-07T13:21:26;96908.63;;;29.47;36.71